createdAt,value
2023-02-24T12:44:49.997Z,95540.69
2023-02-24T13:13:06.623Z,95506.03
2023-02-24T13:17:59.781Z,95491.69
2023-02-24T13:20:36.587Z,95490.41
2023-02-24T13:23:22.234Z,95491.66
2023-02-24T13:25:55.769Z,95496.41
2023-02-24T13:47:34.698Z,95446.81
2023-02-24T13:50:26.738Z,95437.44
2023-02-24T13:53:16.658Z,95435.47
2023-02-24T13:56:29.054Z,95430.38
2023-02-24T13:59:08.065Z,95419.00
2023-02-24T14:01:51.507Z,95416.19
2023-02-24T14:04:30.884Z,95408.13
2023-02-24T14:07:10.256Z,95413.66
2023-02-24T14:09:53.855Z,95408.56
2023-02-24T14:12:32.221Z,95401.28
2023-02-24T14:15:05.071Z,95401.19
2023-02-24T14:17:37.961Z,95402.03
2023-02-24T14:20:09.522Z,95392.09
2023-02-24T14:22:53.946Z,95389.44
2023-02-24T14:25:30.740Z,95390.88
2023-02-24T14:28:02.931Z,95387.50
2023-02-24T14:30:41.436Z,95384.94
2023-02-24T14:33:30.458Z,95388.88
2023-02-24T14:36:05.315Z,95388.22
2023-02-24T14:38:43.212Z,95376.78
2023-02-24T14:41:26.118Z,95382.56
2023-02-24T14:43:57.958Z,95380.91
2023-02-24T14:46:29.874Z,95377.81
2023-02-24T14:49:01.471Z,95373.75
2023-02-24T14:51:36.208Z,95376.81
2023-02-24T14:54:16.200Z,95377.44
2023-02-24T14:56:48.054Z,95376.31
2023-02-24T14:59:37.732Z,95373.19
2023-02-24T15:02:21.655Z,95373.38
2023-02-24T15:04:56.247Z,95368.53
2023-02-24T15:07:34.860Z,95371.63
2023-02-24T15:10:07.856Z,95362.00
2023-02-24T15:12:52.174Z,95354.69
2023-02-24T15:15:31.642Z,95352.03
2023-02-24T15:18:24.580Z,95355.09
2023-02-24T15:21:02.011Z,95344.03
2023-02-24T15:23:38.191Z,95348.13
2023-02-24T15:26:30.782Z,95340.09
2023-02-24T15:29:25.252Z,95331.06
2023-02-24T15:31:59.991Z,95332.28
2023-02-24T15:35:39.260Z,95322.88
2023-02-24T15:38:24.905Z,95325.44
2023-02-24T15:41:42.597Z,95328.53
2023-02-24T15:44:33.306Z,95332.72
2023-02-24T15:47:27.754Z,95333.53
2023-02-24T15:49:59.431Z,95335.41
2023-02-24T15:54:48.066Z,95332.63
2023-02-24T15:59:56.010Z,95327.00
2023-02-24T16:02:28.069Z,95316.84
2023-02-24T16:04:59.694Z,95320.84
2023-02-24T16:09:17.297Z,95317.66
2023-02-24T16:11:48.860Z,95316.09
2023-02-24T16:14:20.384Z,95315.47
2023-02-24T16:18:31.271Z,95315.41
2023-02-24T16:21:03.971Z,95317.00
2023-02-24T16:23:40.471Z,95321.31
2023-02-24T16:26:21.570Z,95319.66
2023-02-24T16:28:56.185Z,95317.72
2023-02-24T16:31:28.327Z,95316.78
2023-02-24T16:34:00.216Z,95325.94
2023-02-24T16:36:32.949Z,95322.84
2023-02-24T16:39:05.147Z,95315.47
2023-02-24T16:41:36.787Z,95318.88
2023-02-24T16:44:09.392Z,95309.41
2023-02-24T16:46:44.531Z,95318.28
2023-02-24T16:49:20.765Z,95316.78
2023-02-24T16:51:52.386Z,95310.94
2023-02-24T16:54:28.939Z,95326.69
2023-02-24T16:57:00.555Z,95333.78
2023-02-24T16:59:32.219Z,95344.19
2023-02-24T17:02:04.204Z,95347.06
2023-02-24T17:04:35.804Z,95325.50
2023-02-24T17:07:10.689Z,95324.63
2023-02-24T17:09:42.378Z,95316.88
2023-02-24T17:12:17.480Z,95335.06
2023-02-24T17:14:51.704Z,95341.88
2023-02-24T17:17:23.248Z,95338.84
2023-02-24T17:19:54.863Z,95338.84
2023-02-24T17:22:26.984Z,95341.19
2023-02-24T17:24:59.890Z,95332.22
2023-02-24T17:27:32.587Z,95347.59
2023-02-24T17:30:05.893Z,95337.47
2023-02-24T17:32:37.985Z,95341.72
2023-02-24T17:35:10.812Z,95339.03
2023-02-24T17:37:42.570Z,95337.13
2023-02-24T17:40:15.501Z,95312.47
2023-02-24T17:42:47.581Z,95303.69
2023-02-24T17:45:19.730Z,95300.09
2023-02-24T17:47:53.706Z,95294.44
2023-02-24T17:50:25.783Z,95290.66
2023-02-24T17:52:57.643Z,95272.72
2023-02-24T17:55:29.253Z,95276.03
2023-02-24T17:58:00.865Z,95286.84
2023-02-24T18:00:32.442Z,95299.44
2023-02-24T18:03:04.245Z,95304.66
2023-02-24T18:05:35.831Z,95308.78
2023-02-24T18:08:07.398Z,95307.31
2023-02-24T18:10:39.106Z,95313.38
2023-02-24T18:13:11.605Z,95322.53
2023-02-24T18:15:43.238Z,95321.63
2023-02-24T18:18:14.848Z,95326.34
2023-02-24T18:20:47.559Z,95331.50
2023-02-24T18:23:19.858Z,95328.28
2023-02-24T18:25:51.389Z,95331.19
2023-02-24T18:28:22.929Z,95333.16
2023-02-24T18:30:54.621Z,95338.19
2023-02-24T18:33:27.681Z,95328.72
2023-02-24T18:36:02.662Z,95327.19
2023-02-24T18:38:34.405Z,95321.38
2023-02-24T18:41:09.613Z,95309.78
2023-02-24T18:43:42.878Z,95309.38
2023-02-24T18:46:16.351Z,95303.56
2023-02-24T18:48:50.148Z,95303.69
2023-02-24T18:51:23.282Z,95294.50
2023-02-24T18:53:58.172Z,95302.81
2023-02-24T18:56:33.001Z,95295.50
2023-02-24T18:59:04.766Z,95297.97
2023-02-24T19:01:39.435Z,95292.16
2023-02-24T19:04:11.481Z,95293.56
2023-02-24T19:06:48.985Z,95291.44
2023-02-24T19:09:21.766Z,95306.88
2023-02-24T19:11:54.214Z,95294.66
2023-02-24T19:14:25.794Z,95293.69
2023-02-24T19:17:01.197Z,95294.75
2023-02-24T19:19:32.853Z,95301.28
2023-02-24T19:22:04.414Z,95301.88
2023-02-24T19:24:35.965Z,95297.03
2023-02-24T19:30:05.686Z,95292.03
2023-02-24T19:32:40.393Z,95287.13
2023-02-24T19:35:15.301Z,95281.91
2023-02-24T19:37:48.691Z,95269.94
2023-02-24T19:40:20.450Z,95274.28
2023-02-24T19:42:53.170Z,95278.31
2023-02-24T19:45:24.718Z,95279.91
2023-02-24T19:47:56.432Z,95276.78
2023-02-24T19:50:28.061Z,95278.19
2023-02-24T19:52:59.652Z,95267.25
2023-02-24T19:55:31.244Z,95272.34
2023-02-24T19:58:03.060Z,95268.16
2023-02-24T20:00:34.593Z,95275.16
2023-02-24T20:03:06.205Z,95276.53
2023-02-24T20:05:37.814Z,95265.91
2023-02-24T20:08:15.669Z,95269.50
2023-02-24T20:10:47.214Z,95274.16
2023-02-24T20:13:18.801Z,95267.91
2023-02-24T20:15:50.571Z,95264.34
2023-02-24T20:18:22.105Z,95256.94
2023-02-24T20:20:58.032Z,95257.75
2023-02-24T20:23:29.971Z,95260.34
2023-02-24T20:26:01.819Z,95256.66
2023-02-24T20:28:33.472Z,95247.56
2023-02-24T20:31:12.116Z,95261.50
2023-02-24T20:33:44.361Z,95250.34
2023-02-24T20:36:28.001Z,95247.13
2023-02-24T20:38:59.752Z,95259.44
2023-02-24T20:41:31.305Z,95262.47
2023-02-24T20:44:02.932Z,95264.38
2023-02-24T20:46:35.309Z,95259.63
2023-02-24T20:49:11.108Z,95260.06
2023-02-24T20:51:43.807Z,95271.63
2023-02-24T20:54:16.055Z,95265.72
2023-02-24T20:56:48.253Z,95271.94
2023-02-24T20:59:23.961Z,95264.41
2023-02-24T21:01:55.799Z,95270.25
2023-02-24T21:04:27.502Z,95260.16
2023-02-24T21:06:59.483Z,95269.66
2023-02-24T21:09:36.981Z,95258.88
2023-02-24T21:12:11.932Z,95255.22
2023-02-24T21:14:43.561Z,95247.78
2023-02-24T21:17:15.237Z,95256.50
2023-02-24T21:19:46.789Z,95252.09
2023-02-24T21:22:18.545Z,95247.66
2023-02-24T21:24:50.141Z,95249.16
2023-02-24T21:27:21.718Z,95258.88
2023-02-24T21:29:53.460Z,95246.59
2023-02-24T21:32:25.197Z,95242.50
2023-02-24T21:34:56.929Z,95255.66
2023-02-24T21:37:28.615Z,95251.47
2023-02-24T21:40:00.158Z,95264.28
2023-02-24T21:42:31.706Z,95267.38
2023-02-24T21:45:03.898Z,95255.41
2023-02-24T21:47:36.608Z,95257.69
2023-02-24T21:50:11.939Z,95272.84
2023-02-24T21:52:45.564Z,95272.28
2023-02-24T21:55:17.369Z,95265.81
2023-02-24T21:57:48.936Z,95261.28
2023-02-24T22:00:21.727Z,95271.09
2023-02-24T22:02:55.382Z,95273.66
2023-02-24T22:05:27.213Z,95289.66
2023-02-24T22:07:58.790Z,95294.34
2023-02-24T22:10:30.385Z,95299.28
2023-02-24T22:13:01.981Z,95303.56
2023-02-24T22:15:33.542Z,95300.31
2023-02-24T22:18:05.133Z,95282.22
2023-02-24T22:20:40.015Z,95290.47
2023-02-24T22:23:11.576Z,95284.44
2023-02-24T22:25:43.156Z,95290.50
2023-02-24T22:28:14.675Z,95280.72
2023-02-24T22:30:57.870Z,95300.38
2023-02-24T22:33:31.660Z,95279.00
2023-02-24T22:36:18.681Z,95288.75
2023-02-24T22:38:50.502Z,95276.69
2023-02-24T22:41:26.483Z,95289.03
2023-02-24T22:43:59.801Z,95288.94
2023-02-24T22:46:38.182Z,95307.31
2023-02-24T22:49:10.446Z,95316.56
2023-02-24T22:51:42.502Z,95327.00
2023-02-24T22:54:14.388Z,95346.19
2023-02-24T22:56:48.876Z,95355.84
2023-02-24T22:59:20.411Z,95351.03
2023-02-24T23:01:52.053Z,95356.56
2023-02-24T23:04:24.053Z,95365.78
2023-02-24T23:06:57.185Z,95366.28
2023-02-24T23:09:29.192Z,95371.28
2023-02-24T23:12:00.753Z,95373.13
2023-02-24T23:14:32.430Z,95371.38
2023-02-24T23:17:03.999Z,95376.66
2023-02-24T23:19:35.524Z,95379.78
2023-02-24T23:22:08.023Z,95408.09
2023-02-24T23:24:40.697Z,95406.50
2023-02-24T23:27:12.404Z,95400.13
2023-02-24T23:29:43.916Z,95413.78
2023-02-24T23:32:16.011Z,95415.31
2023-02-24T23:34:47.640Z,95424.69
2023-02-24T23:37:20.120Z,95423.66
2023-02-24T23:39:52.636Z,95439.38
2023-02-24T23:42:24.188Z,95441.13
2023-02-24T23:44:55.813Z,95439.09
2023-02-24T23:47:27.700Z,95425.38
2023-02-24T23:49:59.316Z,95425.44
2023-02-24T23:52:30.878Z,95425.66
2023-02-24T23:55:02.438Z,95427.44
2023-02-24T23:57:34.275Z,95423.56
